sensor_id;sensor_type;location;lat;lon;timestamp;P1;durP1;ratioP1;P2;durP2;ratioP2
75818;SDS011;64453;51.944;9.796;2023-02-01T00:00:57;12.53;;;4.07;;
75818;SDS011;64453;51.944;9.796;2023-02-01T00:03:24;14.60;;;4.30;;
75818;SDS011;64453;51.944;9.796;2023-02-01T00:05:54;11.20;;;4.33;;
75818;SDS011;64453;51.944;9.796;2023-02-01T00:08:22;16.07;;;3.97;;
75818;SDS011;64453;51.944;9.796;2023-02-01T00:10:57;14.00;;;4.03;;
75818;SDS011;64453;51.944;9.796;2023-02-01T00:13:25;11.73;;;3.93;;
75818;SDS011;64453;51.944;9.796;2023-02-01T00:16:02;10.30;;;4.03;;
75818;SDS011;64453;51.944;9.796;2023-02-01T00:18:30;13.30;;;4.07;;
75818;SDS011;64453;51.944;9.796;2023-02-01T00:20:57;16.23;;;4.77;;
75818;SDS011;64453;51.944;9.796;2023-02-01T00:23:24;12.87;;;3.97;;
75818;SDS011;64453;51.944;9.796;2023-02-01T00:25:51;14.70;;;4.50;;
75818;SDS011;64453;51.944;9.796;2023-02-01T00:28:18;13.30;;;4.23;;
75818;SDS011;64453;51.944;9.796;2023-02-01T00:30:47;12.07;;;3.63;;
75818;SDS011;64453;51.944;9.796;2023-02-01T00:33:23;16.63;;;3.80;;
75818;SDS011;64453;51.944;9.796;2023-02-01T00:35:50;10.30;;;3.70;;
75818;SDS011;64453;51.944;9.796;2023-02-01T00:38:17;14.60;;;4.73;;
75818;SDS011;64453;51.944;9.796;2023-02-01T00:40:44;13.40;;;3.47;;
75818;SDS011;64453;51.944;9.796;2023-02-01T00:43:10;12.87;;;3.93;;
75818;SDS011;64453;51.944;9.796;2023-02-01T00:45:37;13.00;;;4.23;;
75818;SDS011;64453;51.944;9.796;2023-02-01T00:48:06;10.80;;;3.93;;
75818;SDS011;64453;51.944;9.796;2023-02-01T00:50:33;11.80;;;4.00;;
75818;SDS011;64453;51.944;9.796;2023-02-01T00:53:00;14.23;;;3.73;;
75818;SDS011;64453;51.944;9.796;2023-02-01T00:55:26;12.20;;;4.37;;
75818;SDS011;64453;51.944;9.796;2023-02-01T00:57:53;15.27;;;4.23;;
75818;SDS011;64453;51.944;9.796;2023-02-01T01:00:21;9.87;;;3.43;;
75818;SDS011;64453;51.944;9.796;2023-02-01T01:02:48;9.70;;;3.50;;
75818;SDS011;64453;51.944;9.796;2023-02-01T01:05:16;19.10;;;5.20;;
75818;SDS011;64453;51.944;9.796;2023-02-01T01:07:43;10.33;;;3.20;;
75818;SDS011;64453;51.944;9.796;2023-02-01T01:10:10;16.67;;;4.20;;
75818;SDS011;64453;51.944;9.796;2023-02-01T01:12:37;14.30;;;3.20;;
75818;SDS011;64453;51.944;9.796;2023-02-01T01:15:04;14.20;;;3.93;;
75818;SDS011;64453;51.944;9.796;2023-02-01T01:17:32;12.20;;;4.10;;
75818;SDS011;64453;51.944;9.796;2023-02-01T01:19:59;13.43;;;3.80;;
75818;SDS011;64453;51.944;9.796;2023-02-01T01:22:28;15.33;;;3.93;;
75818;SDS011;64453;51.944;9.796;2023-02-01T01:24:54;15.60;;;4.00;;
75818;SDS011;64453;51.944;9.796;2023-02-01T01:27:21;13.83;;;3.97;;
75818;SDS011;64453;51.944;9.796;2023-02-01T01:29:50;11.07;;;3.40;;
75818;SDS011;64453;51.944;9.796;2023-02-01T01:32:16;9.07;;;3.83;;
75818;SDS011;64453;51.944;9.796;2023-02-01T01:34:44;13.83;;;3.70;;
75818;SDS011;64453;51.944;9.796;2023-02-01T01:37:11;13.43;;;4.40;;
75818;SDS011;64453;51.944;9.796;2023-02-01T01:39:39;14.10;;;3.57;;
75818;SDS011;64453;51.944;9.796;2023-02-01T01:42:08;9.97;;;3.57;;
75818;SDS011;64453;51.944;9.796;2023-02-01T01:44:57;12.07;;;3.90;;
75818;SDS011;64453;51.944;9.796;2023-02-01T01:47:29;16.70;;;3.73;;
75818;SDS011;64453;51.944;9.796;2023-02-01T01:50:01;11.40;;;4.07;;
75818;SDS011;64453;51.944;9.796;2023-02-01T01:52:30;13.43;;;3.40;;
75818;SDS011;64453;51.944;9.796;2023-02-01T01:54:59;18.10;;;4.53;;
75818;SDS011;64453;51.944;9.796;2023-02-01T01:57:26;12.50;;;4.50;;
75818;SDS011;64453;51.944;9.796;2023-02-01T01:59:59;15.13;;;4.90;;
75818;SDS011;64453;51.944;9.796;2023-02-01T02:02:30;13.70;;;3.83;;
75818;SDS011;64453;51.944;9.796;2023-02-01T02:04:57;11.60;;;4.23;;
75818;SDS011;64453;51.944;9.796;2023-02-01T02:07:25;14.47;;;4.10;;
75818;SDS011;64453;51.944;9.796;2023-02-01T02:09:56;16.43;;;4.90;;
75818;SDS011;64453;51.944;9.796;2023-02-01T02:12:24;10.70;;;3.40;;
75818;SDS011;64453;51.944;9.796;2023-02-01T02:14:51;15.20;;;3.90;;
75818;SDS011;64453;51.944;9.796;2023-02-01T02:17:24;14.20;;;4.30;;
75818;SDS011;64453;51.944;9.796;2023-02-01T02:20:10;14.73;;;4.80;;
75818;SDS011;64453;51.944;9.796;2023-02-01T02:23:03;11.80;;;4.10;;
75818;SDS011;64453;51.944;9.796;2023-02-01T02:26:21;11.90;;;4.63;;
75818;SDS011;64453;51.944;9.796;2023-02-01T02:29:04;15.23;;;4.10;;
75818;SDS011;64453;51.944;9.796;2023-02-01T02:32:08;9.73;;;3.40;;
75818;SDS011;64453;51.944;9.796;2023-02-01T02:35:01;11.13;;;4.07;;
75818;SDS011;64453;51.944;9.796;2023-02-01T02:37:37;9.40;;;4.60;;
75818;SDS011;64453;51.944;9.796;2023-02-01T02:40:12;13.70;;;4.43;;
75818;SDS011;64453;51.944;9.796;2023-02-01T02:42:48;14.60;;;4.63;;
75818;SDS011;64453;51.944;9.796;2023-02-01T02:45:53;13.33;;;4.23;;
75818;SDS011;64453;51.944;9.796;2023-02-01T02:48:59;12.60;;;4.70;;
75818;SDS011;64453;51.944;9.796;2023-02-01T02:51:33;11.23;;;4.57;;
75818;SDS011;64453;51.944;9.796;2023-02-01T02:54:23;9.30;;;3.50;;
75818;SDS011;64453;51.944;9.796;2023-02-01T02:57:15;13.53;;;4.63;;
75818;SDS011;64453;51.944;9.796;2023-02-01T03:00:04;12.10;;;4.00;;
75818;SDS011;64453;51.944;9.796;2023-02-01T03:02:53;11.50;;;4.50;;
75818;SDS011;64453;51.944;9.796;2023-02-01T03:05:41;10.70;;;4.07;;
75818;SDS011;64453;51.944;9.796;2023-02-01T03:08:12;11.27;;;3.70;;
75818;SDS011;64453;51.944;9.796;2023-02-01T03:10:50;14.30;;;4.30;;
75818;SDS011;64453;51.944;9.796;2023-02-01T03:13:26;11.40;;;4.13;;
75818;SDS011;64453;51.944;9.796;2023-02-01T03:16:01;17.37;;;4.63;;
75818;SDS011;64453;51.944;9.796;2023-02-01T03:18:36;10.43;;;4.33;;
75818;SDS011;64453;51.944;9.796;2023-02-01T03:21:12;12.50;;;4.53;;
75818;SDS011;64453;51.944;9.796;2023-02-01T03:23:45;11.40;;;4.10;;
75818;SDS011;64453;51.944;9.796;2023-02-01T03:26:15;12.53;;;4.07;;
75818;SDS011;64453;51.944;9.796;2023-02-01T03:28:45;13.57;;;4.47;;
75818;SDS011;64453;51.944;9.796;2023-02-01T03:31:20;14.50;;;4.33;;
75818;SDS011;64453;51.944;9.796;2023-02-01T03:33:48;14.03;;;4.80;;
75818;SDS011;64453;51.944;9.796;2023-02-01T03:36:18;13.70;;;4.20;;
75818;SDS011;64453;51.944;9.796;2023-02-01T03:38:54;13.53;;;4.33;;
75818;SDS011;64453;51.944;9.796;2023-02-01T03:41:27;12.37;;;4.53;;
75818;SDS011;64453;51.944;9.796;2023-02-01T03:44:01;15.33;;;4.80;;
75818;SDS011;64453;51.944;9.796;2023-02-01T03:46:39;16.70;;;5.37;;
75818;SDS011;64453;51.944;9.796;2023-02-01T03:49:10;14.13;;;4.60;;
75818;SDS011;64453;51.944;9.796;2023-02-01T03:51:43;13.80;;;4.70;;
75818;SDS011;64453;51.944;9.796;2023-02-01T03:54:12;10.90;;;4.03;;
75818;SDS011;64453;51.944;9.796;2023-02-01T03:56:42;14.07;;;4.80;;
75818;SDS011;64453;51.944;9.796;2023-02-01T03:59:12;16.03;;;5.33;;
75818;SDS011;64453;51.944;9.796;2023-02-01T04:01:40;16.37;;;5.07;;
75818;SDS011;64453;51.944;9.796;2023-02-01T04:04:07;14.77;;;5.17;;
75818;SDS011;64453;51.944;9.796;2023-02-01T04:06:34;16.80;;;5.40;;
75818;SDS011;64453;51.944;9.796;2023-02-01T04:09:01;12.13;;;4.67;;
75818;SDS011;64453;51.944;9.796;2023-02-01T04:11:30;18.63;;;6.67;;
75818;SDS011;64453;51.944;9.796;2023-02-01T04:13:57;13.23;;;4.80;;
75818;SDS011;64453;51.944;9.796;2023-02-01T04:16:29;18.43;;;5.20;;
75818;SDS011;64453;51.944;9.796;2023-02-01T04:18:56;16.47;;;5.30;;
75818;SDS011;64453;51.944;9.796;2023-02-01T04:21:23;15.77;;;5.00;;
75818;SDS011;64453;51.944;9.796;2023-02-01T04:23:51;15.83;;;6.00;;
75818;SDS011;64453;51.944;9.796;2023-02-01T04:26:18;14.90;;;5.00;;
75818;SDS011;64453;51.944;9.796;2023-02-01T04:28:47;11.80;;;5.20;;
75818;SDS011;64453;51.944;9.796;2023-02-01T04:31:14;15.93;;;5.70;;
75818;SDS011;64453;51.944;9.796;2023-02-01T04:33:42;13.73;;;5.30;;
75818;SDS011;64453;51.944;9.796;2023-02-01T04:36:10;13.23;;;4.73;;
75818;SDS011;64453;51.944;9.796;2023-02-01T04:38:37;13.40;;;5.30;;
75818;SDS011;64453;51.944;9.796;2023-02-01T04:41:04;13.13;;;5.03;;
75818;SDS011;64453;51.944;9.796;2023-02-01T04:43:31;14.50;;;4.43;;
75818;SDS011;64453;51.944;9.796;2023-02-01T04:45:59;8.70;;;4.00;;
75818;SDS011;64453;51.944;9.796;2023-02-01T04:48:26;14.33;;;5.30;;
75818;SDS011;64453;51.944;9.796;2023-02-01T04:50:53;13.73;;;4.90;;
75818;SDS011;64453;51.944;9.796;2023-02-01T04:53:19;12.97;;;4.77;;
75818;SDS011;64453;51.944;9.796;2023-02-01T04:55:47;10.47;;;3.80;;
75818;SDS011;64453;51.944;9.796;2023-02-01T04:58:15;12.13;;;4.80;;
75818;SDS011;64453;51.944;9.796;2023-02-01T05:00:42;15.80;;;4.70;;
75818;SDS011;64453;51.944;9.796;2023-02-01T05:03:10;10.97;;;3.97;;
75818;SDS011;64453;51.944;9.796;2023-02-01T05:05:37;10.03;;;3.53;;
75818;SDS011;64453;51.944;9.796;2023-02-01T05:08:04;12.20;;;3.80;;
75818;SDS011;64453;51.944;9.796;2023-02-01T05:10:31;11.40;;;4.20;;
75818;SDS011;64453;51.944;9.796;2023-02-01T05:12:58;14.57;;;4.10;;
75818;SDS011;64453;51.944;9.796;2023-02-01T05:15:42;12.53;;;3.57;;
75818;SDS011;64453;51.944;9.796;2023-02-01T05:18:12;9.13;;;3.33;;
75818;SDS011;64453;51.944;9.796;2023-02-01T05:20:39;10.60;;;3.33;;
75818;SDS011;64453;51.944;9.796;2023-02-01T05:23:06;9.97;;;3.80;;
75818;SDS011;64453;51.944;9.796;2023-02-01T05:25:33;11.50;;;3.67;;
75818;SDS011;64453;51.944;9.796;2023-02-01T05:28:00;11.43;;;3.77;;
75818;SDS011;64453;51.944;9.796;2023-02-01T05:30:26;10.53;;;4.10;;
75818;SDS011;64453;51.944;9.796;2023-02-01T05:32:53;11.07;;;4.27;;
75818;SDS011;64453;51.944;9.796;2023-02-01T05:35:21;10.10;;;3.93;;
75818;SDS011;64453;51.944;9.796;2023-02-01T05:37:48;12.50;;;3.57;;
75818;SDS011;64453;51.944;9.796;2023-02-01T05:40:16;8.30;;;3.87;;
75818;SDS011;64453;51.944;9.796;2023-02-01T05:42:43;8.77;;;3.57;;
75818;SDS011;64453;51.944;9.796;2023-02-01T05:45:10;9.40;;;3.47;;
75818;SDS011;64453;51.944;9.796;2023-02-01T05:47:37;5.80;;;3.10;;
75818;SDS011;64453;51.944;9.796;2023-02-01T05:50:05;13.47;;;3.10;;
75818;SDS011;64453;51.944;9.796;2023-02-01T05:52:34;11.10;;;4.50;;
75818;SDS011;64453;51.944;9.796;2023-02-01T05:55:01;10.77;;;3.10;;
75818;SDS011;64453;51.944;9.796;2023-02-01T05:57:28;8.57;;;3.03;;
75818;SDS011;64453;51.944;9.796;2023-02-01T05:59:55;11.07;;;3.70;;
75818;SDS011;64453;51.944;9.796;2023-02-01T06:02:22;5.63;;;2.50;;
75818;SDS011;64453;51.944;9.796;2023-02-01T06:04:50;12.33;;;3.10;;
75818;SDS011;64453;51.944;9.796;2023-02-01T06:07:17;8.60;;;3.20;;
75818;SDS011;64453;51.944;9.796;2023-02-01T06:09:45;7.83;;;2.50;;
75818;SDS011;64453;51.944;9.796;2023-02-01T06:12:12;6.80;;;2.60;;
75818;SDS011;64453;51.944;9.796;2023-02-01T06:14:39;5.23;;;2.97;;
75818;SDS011;64453;51.944;9.796;2023-02-01T06:17:08;7.87;;;2.97;;
75818;SDS011;64453;51.944;9.796;2023-02-01T06:19:35;6.77;;;2.93;;
75818;SDS011;64453;51.944;9.796;2023-02-01T06:22:02;7.03;;;2.90;;
75818;SDS011;64453;51.944;9.796;2023-02-01T06:24:31;7.23;;;2.50;;
75818;SDS011;64453;51.944;9.796;2023-02-01T06:26:59;7.63;;;2.77;;
75818;SDS011;64453;51.944;9.796;2023-02-01T06:29:26;9.33;;;2.90;;
75818;SDS011;64453;51.944;9.796;2023-02-01T06:31:53;4.87;;;2.13;;
75818;SDS011;64453;51.944;9.796;2023-02-01T06:34:20;4.53;;;2.57;;
75818;SDS011;64453;51.944;9.796;2023-02-01T06:36:48;5.83;;;2.60;;
75818;SDS011;64453;51.944;9.796;2023-02-01T06:39:14;10.13;;;3.30;;
75818;SDS011;64453;51.944;9.796;2023-02-01T06:41:42;6.80;;;3.37;;
75818;SDS011;64453;51.944;9.796;2023-02-01T06:44:10;7.03;;;3.10;;
75818;SDS011;64453;51.944;9.796;2023-02-01T06:46:37;9.30;;;4.37;;
75818;SDS011;64453;51.944;9.796;2023-02-01T06:49:28;5.80;;;3.17;;
75818;SDS011;64453;51.944;9.796;2023-02-01T06:51:58;5.63;;;2.40;;
75818;SDS011;64453;51.944;9.796;2023-02-01T06:54:25;6.40;;;2.50;;
75818;SDS011;64453;51.944;9.796;2023-02-01T06:56:52;4.43;;;2.30;;
75818;SDS011;64453;51.944;9.796;2023-02-01T06:59:21;5.87;;;2.67;;
75818;SDS011;64453;51.944;9.796;2023-02-01T07:01:48;9.77;;;3.83;;
75818;SDS011;64453;51.944;9.796;2023-02-01T07:04:14;7.90;;;3.60;;
75818;SDS011;64453;51.944;9.796;2023-02-01T07:06:41;8.50;;;3.30;;
75818;SDS011;64453;51.944;9.796;2023-02-01T07:09:10;11.57;;;3.40;;
75818;SDS011;64453;51.944;9.796;2023-02-01T07:11:38;11.00;;;3.57;;
75818;SDS011;64453;51.944;9.796;2023-02-01T07:14:08;8.93;;;3.10;;
75818;SDS011;64453;51.944;9.796;2023-02-01T07:16:36;12.30;;;3.90;;
75818;SDS011;64453;51.944;9.796;2023-02-01T07:19:03;7.70;;;3.43;;
75818;SDS011;64453;51.944;9.796;2023-02-01T07:21:30;7.53;;;3.20;;
75818;SDS011;64453;51.944;9.796;2023-02-01T07:23:57;9.00;;;4.13;;
75818;SDS011;64453;51.944;9.796;2023-02-01T07:26:25;10.83;;;3.70;;
75818;SDS011;64453;51.944;9.796;2023-02-01T07:28:51;9.43;;;3.60;;
75818;SDS011;64453;51.944;9.796;2023-02-01T07:31:19;9.70;;;3.60;;
75818;SDS011;64453;51.944;9.796;2023-02-01T07:33:48;12.00;;;3.80;;
75818;SDS011;64453;51.944;9.796;2023-02-01T07:36:17;13.90;;;3.50;;
75818;SDS011;64453;51.944;9.796;2023-02-01T07:38:44;8.60;;;3.10;;
75818;SDS011;64453;51.944;9.796;2023-02-01T07:41:12;10.40;;;4.37;;
75818;SDS011;64453;51.944;9.796;2023-02-01T07:43:40;12.27;;;3.77;;
75818;SDS011;64453;51.944;9.796;2023-02-01T07:46:06;7.77;;;2.90;;
75818;SDS011;64453;51.944;9.796;2023-02-01T07:48:35;11.60;;;3.80;;
75818;SDS011;64453;51.944;9.796;2023-02-01T07:51:04;11.60;;;3.80;;
75818;SDS011;64453;51.944;9.796;2023-02-01T07:53:34;9.70;;;3.00;;
75818;SDS011;64453;51.944;9.796;2023-02-01T07:56:02;7.70;;;3.47;;
75818;SDS011;64453;51.944;9.796;2023-02-01T07:58:34;7.23;;;3.47;;
75818;SDS011;64453;51.944;9.796;2023-02-01T08:01:01;9.67;;;3.03;;
75818;SDS011;64453;51.944;9.796;2023-02-01T08:03:46;12.23;;;3.20;;
75818;SDS011;64453;51.944;9.796;2023-02-01T08:06:16;9.37;;;3.33;;
75818;SDS011;64453;51.944;9.796;2023-02-01T08:08:44;8.70;;;3.60;;
75818;SDS011;64453;51.944;9.796;2023-02-01T08:11:12;8.50;;;3.50;;
75818;SDS011;64453;51.944;9.796;2023-02-01T08:13:40;11.60;;;3.60;;
75818;SDS011;64453;51.944;9.796;2023-02-01T08:16:08;12.27;;;4.10;;
75818;SDS011;64453;51.944;9.796;2023-02-01T08:18:37;13.07;;;3.10;;
75818;SDS011;64453;51.944;9.796;2023-02-01T08:21:05;13.20;;;3.67;;
75818;SDS011;64453;51.944;9.796;2023-02-01T08:23:36;8.80;;;3.27;;
75818;SDS011;64453;51.944;9.796;2023-02-01T08:26:08;12.73;;;3.00;;
75818;SDS011;64453;51.944;9.796;2023-02-01T08:28:38;12.47;;;3.80;;
75818;SDS011;64453;51.944;9.796;2023-02-01T08:31:07;12.23;;;3.37;;
75818;SDS011;64453;51.944;9.796;2023-02-01T08:33:36;8.60;;;3.33;;
75818;SDS011;64453;51.944;9.796;2023-02-01T08:36:04;14.10;;;4.60;;
75818;SDS011;64453;51.944;9.796;2023-02-01T08:38:35;10.50;;;3.67;;
75818;SDS011;64453;51.944;9.796;2023-02-01T08:41:05;11.60;;;3.43;;
75818;SDS011;64453;51.944;9.796;2023-02-01T08:43:32;12.20;;;3.77;;
75818;SDS011;64453;51.944;9.796;2023-02-01T08:46:00;8.83;;;2.80;;
75818;SDS011;64453;51.944;9.796;2023-02-01T08:48:26;10.23;;;3.37;;
75818;SDS011;64453;51.944;9.796;2023-02-01T08:50:53;12.13;;;3.87;;
75818;SDS011;64453;51.944;9.796;2023-02-01T08:53:20;10.53;;;3.20;;
75818;SDS011;64453;51.944;9.796;2023-02-01T08:55:50;11.20;;;3.57;;
75818;SDS011;64453;51.944;9.796;2023-02-01T08:58:16;8.33;;;2.80;;
75818;SDS011;64453;51.944;9.796;2023-02-01T09:00:44;8.47;;;3.20;;
75818;SDS011;64453;51.944;9.796;2023-02-01T09:03:13;7.00;;;2.97;;
75818;SDS011;64453;51.944;9.796;2023-02-01T09:05:40;12.17;;;3.60;;
75818;SDS011;64453;51.944;9.796;2023-02-01T09:08:07;10.97;;;3.00;;
75818;SDS011;64453;51.944;9.796;2023-02-01T09:10:34;8.43;;;3.40;;
75818;SDS011;64453;51.944;9.796;2023-02-01T09:13:04;10.07;;;3.17;;
75818;SDS011;64453;51.944;9.796;2023-02-01T09:15:30;10.03;;;3.50;;
75818;SDS011;64453;51.944;9.796;2023-02-01T09:17:57;12.40;;;3.33;;
75818;SDS011;64453;51.944;9.796;2023-02-01T09:20:24;11.50;;;3.90;;
75818;SDS011;64453;51.944;9.796;2023-02-01T09:22:52;10.43;;;2.97;;
75818;SDS011;64453;51.944;9.796;2023-02-01T09:25:21;7.87;;;3.10;;
75818;SDS011;64453;51.944;9.796;2023-02-01T09:27:47;6.33;;;3.07;;
75818;SDS011;64453;51.944;9.796;2023-02-01T09:30:16;12.90;;;3.00;;
75818;SDS011;64453;51.944;9.796;2023-02-01T09:32:43;10.67;;;3.37;;
75818;SDS011;64453;51.944;9.796;2023-02-01T09:35:10;12.37;;;3.37;;
75818;SDS011;64453;51.944;9.796;2023-02-01T09:37:37;10.17;;;2.77;;
75818;SDS011;64453;51.944;9.796;2023-02-01T09:40:04;13.30;;;3.73;;
75818;SDS011;64453;51.944;9.796;2023-02-01T09:42:56;10.23;;;2.90;;
75818;SDS011;64453;51.944;9.796;2023-02-01T09:45:40;10.23;;;3.13;;
75818;SDS011;64453;51.944;9.796;2023-02-01T09:48:19;6.53;;;2.90;;
75818;SDS011;64453;51.944;9.796;2023-02-01T09:50:52;11.40;;;3.20;;
75818;SDS011;64453;51.944;9.796;2023-02-01T09:53:23;8.37;;;2.83;;
75818;SDS011;64453;51.944;9.796;2023-02-01T09:55:55;11.43;;;3.50;;
75818;SDS011;64453;51.944;9.796;2023-02-01T09:58:27;9.13;;;2.80;;
75818;SDS011;64453;51.944;9.796;2023-02-01T10:01:02;12.07;;;3.40;;
75818;SDS011;64453;51.944;9.796;2023-02-01T10:03:35;8.70;;;3.30;;
75818;SDS011;64453;51.944;9.796;2023-02-01T10:06:06;6.97;;;3.40;;
75818;SDS011;64453;51.944;9.796;2023-02-01T10:12:11;9.30;;;2.63;;
75818;SDS011;64453;51.944;9.796;2023-02-01T10:15:09;10.47;;;3.13;;
75818;SDS011;64453;51.944;9.796;2023-02-01T10:18:21;11.63;;;3.47;;
75818;SDS011;64453;51.944;9.796;2023-02-01T10:21:08;8.90;;;3.30;;
75818;SDS011;64453;51.944;9.796;2023-02-01T10:23:50;6.47;;;3.33;;
75818;SDS011;64453;51.944;9.796;2023-02-01T10:26:51;7.07;;;2.73;;
75818;SDS011;64453;51.944;9.796;2023-02-01T10:29:27;8.47;;;3.10;;
75818;SDS011;64453;51.944;9.796;2023-02-01T10:32:02;9.13;;;3.20;;
75818;SDS011;64453;51.944;9.796;2023-02-01T10:34:37;8.20;;;3.30;;
75818;SDS011;64453;51.944;9.796;2023-02-01T10:37:09;12.97;;;3.70;;
75818;SDS011;64453;51.944;9.796;2023-02-01T10:39:46;19.83;;;4.27;;
75818;SDS011;64453;51.944;9.796;2023-02-01T10:42:14;11.07;;;3.40;;
75818;SDS011;64453;51.944;9.796;2023-02-01T10:44:44;9.50;;;2.93;;
75818;SDS011;64453;51.944;9.796;2023-02-01T10:47:13;9.70;;;3.33;;
75818;SDS011;64453;51.944;9.796;2023-02-01T10:49:43;6.43;;;2.63;;
75818;SDS011;64453;51.944;9.796;2023-02-01T10:52:18;10.57;;;3.30;;
75818;SDS011;64453;51.944;9.796;2023-02-01T10:54:56;8.50;;;2.60;;
75818;SDS011;64453;51.944;9.796;2023-02-01T10:57:55;12.70;;;3.40;;
75818;SDS011;64453;51.944;9.796;2023-02-01T11:00:23;6.50;;;2.70;;
75818;SDS011;64453;51.944;9.796;2023-02-01T11:02:51;13.07;;;3.30;;
75818;SDS011;64453;51.944;9.796;2023-02-01T11:05:20;10.80;;;3.17;;
75818;SDS011;64453;51.944;9.796;2023-02-01T11:07:49;10.73;;;3.83;;
75818;SDS011;64453;51.944;9.796;2023-02-01T11:13:05;11.03;;;3.70;;
75818;SDS011;64453;51.944;9.796;2023-02-01T11:15:43;7.50;;;2.57;;
75818;SDS011;64453;51.944;9.796;2023-02-01T11:18:15;9.70;;;3.10;;
75818;SDS011;64453;51.944;9.796;2023-02-01T11:20:46;8.97;;;2.73;;
75818;SDS011;64453;51.944;9.796;2023-02-01T11:23:17;9.17;;;3.03;;
75818;SDS011;64453;51.944;9.796;2023-02-01T11:25:48;6.60;;;2.60;;
75818;SDS011;64453;51.944;9.796;2023-02-01T11:28:17;7.87;;;2.90;;
75818;SDS011;64453;51.944;9.796;2023-02-01T11:30:47;13.27;;;3.30;;
75818;SDS011;64453;51.944;9.796;2023-02-01T11:33:15;8.13;;;3.00;;
75818;SDS011;64453;51.944;9.796;2023-02-01T11:35:46;7.97;;;2.73;;
75818;SDS011;64453;51.944;9.796;2023-02-01T11:38:19;7.10;;;3.07;;
75818;SDS011;64453;51.944;9.796;2023-02-01T11:40:55;6.80;;;2.80;;
75818;SDS011;64453;51.944;9.796;2023-02-01T11:43:38;5.23;;;2.67;;
75818;SDS011;64453;51.944;9.796;2023-02-01T11:46:19;9.27;;;2.80;;
75818;SDS011;64453;51.944;9.796;2023-02-01T11:48:53;8.37;;;2.70;;
75818;SDS011;64453;51.944;9.796;2023-02-01T11:51:27;9.40;;;3.13;;
75818;SDS011;64453;51.944;9.796;2023-02-01T11:54:30;11.57;;;3.20;;
75818;SDS011;64453;51.944;9.796;2023-02-01T11:57:15;9.40;;;3.73;;
75818;SDS011;64453;51.944;9.796;2023-02-01T11:59:58;8.10;;;3.47;;
75818;SDS011;64453;51.944;9.796;2023-02-01T12:05:47;5.87;;;2.77;;
75818;SDS011;64453;51.944;9.796;2023-02-01T12:11:30;8.37;;;3.60;;
75818;SDS011;64453;51.944;9.796;2023-02-01T12:14:16;10.30;;;3.77;;
75818;SDS011;64453;51.944;9.796;2023-02-01T12:17:01;11.93;;;3.97;;
75818;SDS011;64453;51.944;9.796;2023-02-01T12:19:50;13.10;;;3.50;;
75818;SDS011;64453;51.944;9.796;2023-02-01T12:22:36;11.43;;;4.13;;
75818;SDS011;64453;51.944;9.796;2023-02-01T12:25:28;15.30;;;4.83;;
75818;SDS011;64453;51.944;9.796;2023-02-01T12:34:17;11.80;;;3.90;;
75818;SDS011;64453;51.944;9.796;2023-02-01T12:36:59;7.47;;;3.93;;
75818;SDS011;64453;51.944;9.796;2023-02-01T12:39:40;13.27;;;5.00;;
75818;SDS011;64453;51.944;9.796;2023-02-01T12:42:14;8.30;;;3.80;;
75818;SDS011;64453;51.944;9.796;2023-02-01T12:44:49;11.57;;;5.20;;
75818;SDS011;64453;51.944;9.796;2023-02-01T12:47:22;11.10;;;3.97;;
75818;SDS011;64453;51.944;9.796;2023-02-01T12:49:58;9.10;;;4.47;;
75818;SDS011;64453;51.944;9.796;2023-02-01T12:52:30;12.93;;;4.43;;
75818;SDS011;64453;51.944;9.796;2023-02-01T12:55:06;8.50;;;4.10;;
75818;SDS011;64453;51.944;9.796;2023-02-01T12:57:46;8.80;;;4.10;;
75818;SDS011;64453;51.944;9.796;2023-02-01T13:00:19;8.57;;;4.40;;
75818;SDS011;64453;51.944;9.796;2023-02-01T13:03:05;10.17;;;5.23;;
75818;SDS011;64453;51.944;9.796;2023-02-01T13:05:53;9.73;;;5.10;;
75818;SDS011;64453;51.944;9.796;2023-02-01T13:08:28;10.73;;;5.40;;
75818;SDS011;64453;51.944;9.796;2023-02-01T13:11:06;8.07;;;4.87;;
75818;SDS011;64453;51.944;9.796;2023-02-01T13:13:44;10.20;;;5.13;;
75818;SDS011;64453;51.944;9.796;2023-02-01T13:16:23;11.30;;;5.07;;
75818;SDS011;64453;51.944;9.796;2023-02-01T13:18:55;7.20;;;4.90;;
75818;SDS011;64453;51.944;9.796;2023-02-01T13:21:31;11.50;;;5.97;;
75818;SDS011;64453;51.944;9.796;2023-02-01T13:24:01;9.77;;;5.17;;
75818;SDS011;64453;51.944;9.796;2023-02-01T13:26:29;10.10;;;5.43;;
75818;SDS011;64453;51.944;9.796;2023-02-01T13:28:58;12.20;;;5.33;;
75818;SDS011;64453;51.944;9.796;2023-02-01T13:31:35;9.90;;;4.83;;
75818;SDS011;64453;51.944;9.796;2023-02-01T13:34:30;7.07;;;4.40;;
75818;SDS011;64453;51.944;9.796;2023-02-01T13:38:06;5.23;;;4.13;;
75818;SDS011;64453;51.944;9.796;2023-02-01T13:41:06;7.40;;;4.40;;
75818;SDS011;64453;51.944;9.796;2023-02-01T13:43:49;8.50;;;4.53;;
75818;SDS011;64453;51.944;9.796;2023-02-01T13:46:22;7.60;;;4.17;;
75818;SDS011;64453;51.944;9.796;2023-02-01T13:48:51;7.10;;;4.10;;
75818;SDS011;64453;51.944;9.796;2023-02-01T13:51:31;5.20;;;4.70;;
75818;SDS011;64453;51.944;9.796;2023-02-01T13:54:03;8.87;;;5.47;;
75818;SDS011;64453;51.944;9.796;2023-02-01T13:56:39;6.80;;;6.10;;
75818;SDS011;64453;51.944;9.796;2023-02-01T14:08:44;8.17;;;6.80;;
75818;SDS011;64453;51.944;9.796;2023-02-01T14:11:33;10.77;;;7.97;;
75818;SDS011;64453;51.944;9.796;2023-02-01T14:26:09;10.33;;;6.40;;
75818;SDS011;64453;51.944;9.796;2023-02-01T14:28:41;6.07;;;4.80;;
75818;SDS011;64453;51.944;9.796;2023-02-01T14:31:14;2.93;;;2.67;;
75818;SDS011;64453;51.944;9.796;2023-02-01T14:33:58;1.77;;;1.60;;
75818;SDS011;64453;51.944;9.796;2023-02-01T14:36:40;1.80;;;1.70;;
75818;SDS011;64453;51.944;9.796;2023-02-01T14:39:21;1.60;;;1.20;;
75818;SDS011;64453;51.944;9.796;2023-02-01T14:41:54;1.23;;;1.10;;
75818;SDS011;64453;51.944;9.796;2023-02-01T14:44:29;2.40;;;1.40;;
75818;SDS011;64453;51.944;9.796;2023-02-01T14:47:03;2.63;;;0.57;;
75818;SDS011;64453;51.944;9.796;2023-02-01T14:53:13;0.40;;;0.40;;
75818;SDS011;64453;51.944;9.796;2023-02-01T14:55:46;0.50;;;0.50;;
75818;SDS011;64453;51.944;9.796;2023-02-01T14:58:18;2.30;;;0.70;;
75818;SDS011;64453;51.944;9.796;2023-02-01T15:00:56;1.23;;;0.40;;
75818;SDS011;64453;51.944;9.796;2023-02-01T15:06:24;0.77;;;0.77;;
75818;SDS011;64453;51.944;9.796;2023-02-01T15:08:58;1.40;;;1.30;;
75818;SDS011;64453;51.944;9.796;2023-02-01T15:11:29;0.40;;;0.30;;
75818;SDS011;64453;51.944;9.796;2023-02-01T15:13:56;0.50;;;0.50;;
75818;SDS011;64453;51.944;9.796;2023-02-01T15:16:25;0.50;;;0.30;;
75818;SDS011;64453;51.944;9.796;2023-02-01T15:19:09;0.67;;;0.30;;
75818;SDS011;64453;51.944;9.796;2023-02-01T15:21:43;1.03;;;0.50;;
75818;SDS011;64453;51.944;9.796;2023-02-01T15:24:17;0.50;;;0.50;;
75818;SDS011;64453;51.944;9.796;2023-02-01T15:26:47;1.07;;;0.40;;
75818;SDS011;64453;51.944;9.796;2023-02-01T15:29:16;1.33;;;0.90;;
75818;SDS011;64453;51.944;9.796;2023-02-01T15:31:45;2.03;;;1.00;;
75818;SDS011;64453;51.944;9.796;2023-02-01T15:34:14;0.70;;;0.40;;
75818;SDS011;64453;51.944;9.796;2023-02-01T15:36:42;1.43;;;1.20;;
75818;SDS011;64453;51.944;9.796;2023-02-01T15:39:11;0.90;;;0.60;;
75818;SDS011;64453;51.944;9.796;2023-02-01T15:41:51;1.30;;;1.20;;
75818;SDS011;64453;51.944;9.796;2023-02-01T15:44:27;1.67;;;1.30;;
75818;SDS011;64453;51.944;9.796;2023-02-01T15:46:58;0.73;;;0.60;;
75818;SDS011;64453;51.944;9.796;2023-02-01T15:49:27;1.17;;;0.90;;
75818;SDS011;64453;51.944;9.796;2023-02-01T15:51:58;0.90;;;0.80;;
75818;SDS011;64453;51.944;9.796;2023-02-01T15:54:28;2.40;;;0.60;;
75818;SDS011;64453;51.944;9.796;2023-02-01T15:56:58;1.60;;;0.80;;
75818;SDS011;64453;51.944;9.796;2023-02-01T15:59:29;1.33;;;1.10;;